createdAt,value
2022-08-07T00:00:56.839Z,101042.99
2022-08-07T00:06:01.212Z,101048.34
2022-08-07T00:11:04.874Z,101050.30
2022-08-07T00:16:07.612Z,101056.21
2022-08-07T00:21:56.593Z,101056.23
2022-08-07T00:26:49.444Z,101061.33
2022-08-07T00:31:53.626Z,101059.94
2022-08-07T00:36:55.844Z,101061.73
2022-08-07T00:42:01.384Z,101057.63
2022-08-07T00:47:06.447Z,101057.98
2022-08-07T00:52:17.581Z,101057.04
2022-08-07T00:57:23.081Z,101057.63
2022-08-07T01:02:28.868Z,101056.51
2022-08-07T01:07:31.713Z,101053.58
2022-08-07T01:12:33.690Z,101052.93
2022-08-07T01:17:35.585Z,101056.67
2022-08-07T01:22:38.182Z,101051.95
2022-08-07T01:27:55.602Z,101049.55
2022-08-07T01:32:58.322Z,101043.55
2022-08-07T01:37:59.587Z,101044.41
2022-08-07T01:43:00.836Z,101050.84
2022-08-07T01:48:19.976Z,101050.94
2022-08-07T01:54:08.583Z,101047.82
2022-08-07T01:58:53.544Z,101047.46
2022-08-07T02:04:02.849Z,101049.30
2022-08-07T02:09:09.108Z,101050.60
2022-08-07T02:14:36.102Z,101046.54
2022-08-07T02:20:07.817Z,101045.98
2022-08-07T02:25:00.054Z,101049.05
2022-08-07T02:30:07.064Z,101046.72
2022-08-07T02:35:10.304Z,101049.80
2022-08-07T02:40:30.742Z,101050.86
2022-08-07T02:46:00.659Z,101046.55
2022-08-07T02:51:06.374Z,101052.94
2022-08-07T02:56:21.276Z,101056.26
2022-08-07T03:01:35.370Z,101049.59
2022-08-07T03:06:38.991Z,101051.57
2022-08-07T03:11:52.206Z,101054.33
2022-08-07T03:16:59.280Z,101046.02
2022-08-07T03:22:01.578Z,101042.26
2022-08-07T03:27:05.503Z,101043.02
2022-08-07T03:32:13.019Z,101046.68
2022-08-07T03:37:19.048Z,101043.52
2022-08-07T03:42:29.559Z,101043.48
2022-08-07T03:47:47.931Z,101044.96
2022-08-07T03:52:55.046Z,101046.25
2022-08-07T03:58:32.482Z,101049.77
2022-08-07T04:03:19.023Z,101050.95
2022-08-07T04:08:23.210Z,101054.08
2022-08-07T04:13:27.574Z,101054.23
2022-08-07T04:18:58.695Z,101054.01
2022-08-07T04:24:06.008Z,101061.39
2022-08-07T04:29:10.992Z,101059.54
2022-08-07T04:34:16.602Z,101067.41
2022-08-07T04:39:21.845Z,101064.30
2022-08-07T04:44:27.008Z,101066.13
2022-08-07T04:50:04.526Z,101074.26
2022-08-07T04:58:07.319Z,101075.11
2022-08-07T05:00:46.898Z,101073.74
2022-08-07T05:05:58.147Z,101082.85
2022-08-07T05:11:19.483Z,101083.58
2022-08-07T05:16:22.134Z,101089.38
2022-08-07T05:22:00.220Z,101091.96
2022-08-07T05:26:54.236Z,101095.09
2022-08-07T05:31:56.761Z,101094.41
2022-08-07T05:36:58.683Z,101098.56
2022-08-07T05:42:05.368Z,101103.52
2022-08-07T05:47:17.872Z,101107.85
2022-08-07T05:52:29.769Z,101107.14
2022-08-07T05:57:34.640Z,101110.44
2022-08-07T06:02:39.786Z,101114.75
2022-08-07T06:08:14.504Z,101113.31
2022-08-07T06:13:05.236Z,101115.75
2022-08-07T06:18:15.852Z,101117.02
2022-08-07T06:23:46.850Z,101114.34
2022-08-07T06:28:59.333Z,101115.80
2022-08-07T06:34:02.475Z,101114.48
2022-08-07T06:40:16.544Z,101117.90
2022-08-07T06:44:26.577Z,101114.58
2022-08-07T06:49:35.603Z,101118.10
2022-08-07T06:55:33.881Z,101118.14
2022-08-07T07:00:18.302Z,101124.71
2022-08-07T07:06:04.860Z,101138.70
2022-08-07T07:10:47.267Z,101137.66
2022-08-07T07:16:02.332Z,101132.31
2022-08-07T07:21:19.232Z,101134.85
2022-08-07T07:26:34.473Z,101133.73
2022-08-07T07:31:44.497Z,101134.48
2022-08-07T07:36:52.656Z,101135.27
2022-08-07T07:42:08.896Z,101134.91
2022-08-07T07:47:23.069Z,101130.86
2022-08-07T07:52:26.277Z,101126.77
2022-08-07T07:57:43.900Z,101126.46
2022-08-07T08:03:04.816Z,101122.73
2022-08-07T08:08:10.116Z,101124.34
2022-08-07T08:13:53.424Z,101122.77
2022-08-07T08:18:56.007Z,101122.90
2022-08-07T08:24:36.265Z,101124.88
2022-08-07T08:29:54.703Z,101121.68
2022-08-07T08:34:58.448Z,101125.52
2022-08-07T08:40:01.166Z,101132.13
2022-08-07T08:45:41.546Z,101134.04
2022-08-07T08:51:03.316Z,101135.02
2022-08-07T08:56:24.675Z,101130.16
2022-08-07T09:01:46.486Z,101129.59
2022-08-07T09:07:12.273Z,101123.45
2022-08-07T09:12:33.106Z,101125.16
2022-08-07T09:18:16.745Z,101112.99
2022-08-07T09:24:28.801Z,101111.63
2022-08-07T09:30:05.754Z,101110.48
2022-08-07T09:34:53.958Z,101109.90
2022-08-07T09:40:05.780Z,101108.19
2022-08-07T09:47:20.048Z,101099.34
2022-08-07T09:50:52.414Z,101090.70
2022-08-07T09:56:34.138Z,101086.33
2022-08-07T10:02:16.715Z,101081.60
2022-08-07T10:07:55.362Z,101076.56
2022-08-07T10:14:01.378Z,101073.11
2022-08-07T10:19:21.611Z,101071.36
2022-08-07T10:25:00.052Z,101068.86
2022-08-07T10:30:33.009Z,101065.05
2022-08-07T10:36:05.181Z,101062.86
2022-08-07T10:41:47.210Z,101049.77
2022-08-07T10:46:53.679Z,101044.61
2022-08-07T10:52:22.523Z,101038.84
2022-08-07T10:58:12.215Z,101030.46
2022-08-07T11:03:37.923Z,101025.90
2022-08-07T11:08:56.900Z,101023.25
2022-08-07T11:14:46.136Z,101018.03
2022-08-07T11:19:55.218Z,101012.98
2022-08-07T11:25:15.237Z,101008.61
2022-08-07T11:30:19.998Z,101007.46
2022-08-07T11:36:05.810Z,101007.65
2022-08-07T11:41:18.238Z,101004.91
2022-08-07T11:47:03.978Z,100999.40
2022-08-07T11:52:35.819Z,101001.78
2022-08-07T11:58:16.703Z,101002.13
2022-08-07T12:03:59.707Z,101006.02
2022-08-07T12:09:16.412Z,101005.88
2022-08-07T12:14:21.178Z,100999.15
2022-08-07T12:19:25.175Z,100993.23
2022-08-07T12:25:08.057Z,100991.64
2022-08-07T12:30:10.277Z,100984.11
2022-08-07T12:35:15.287Z,100986.67
2022-08-07T12:40:46.414Z,100984.13
2022-08-07T12:45:52.260Z,100985.25
2022-08-07T12:51:12.868Z,100986.73
2022-08-07T12:56:26.629Z,100984.95
2022-08-07T13:01:50.114Z,100979.52
2022-08-07T13:08:13.663Z,100975.25
2022-08-07T13:13:01.597Z,100975.09
2022-08-07T13:18:26.510Z,100969.94
2022-08-07T13:24:01.537Z,100965.20
2022-08-07T13:29:06.754Z,100954.62
2022-08-07T13:34:32.595Z,100956.45
2022-08-07T13:40:34.847Z,100952.77
2022-08-07T13:46:12.195Z,100943.89
2022-08-07T13:51:00.583Z,100952.30
2022-08-07T13:56:04.666Z,100950.59
2022-08-07T14:01:15.795Z,100944.54
2022-08-07T14:06:24.743Z,100944.88
2022-08-07T14:11:53.398Z,100941.42
2022-08-07T14:17:32.067Z,100941.44
2022-08-07T14:22:34.616Z,100939.46
2022-08-07T14:28:11.750Z,100932.32
2022-08-07T14:33:04.660Z,100935.27
2022-08-07T14:38:08.497Z,100933.05
2022-08-07T14:43:58.070Z,100930.67
2022-08-07T14:48:56.578Z,100931.45
2022-08-07T14:54:30.234Z,100927.19
2022-08-07T15:00:05.354Z,100922.35
2022-08-07T15:04:53.292Z,100920.87
2022-08-07T15:10:01.332Z,100917.75
2022-08-07T15:15:22.235Z,100922.15
2022-08-07T15:25:55.936Z,100906.95
2022-08-07T15:31:05.556Z,100907.21
2022-08-07T15:36:08.711Z,100908.26
2022-08-07T15:41:24.446Z,100904.06
2022-08-07T15:46:49.951Z,100896.91
2022-08-07T15:57:00.378Z,100890.64
2022-08-07T16:02:04.334Z,100896.52
2022-08-07T16:08:30.536Z,100894.69
2022-08-07T16:13:05.382Z,100889.41
2022-08-07T16:18:50.759Z,100890.19
2022-08-07T16:24:35.106Z,100886.31
2022-08-07T16:30:11.001Z,100882.19
2022-08-07T16:35:58.886Z,100881.58
2022-08-07T16:41:41.740Z,100882.84
2022-08-07T16:47:45.235Z,100880.13
2022-08-07T16:54:02.907Z,100879.86
2022-08-07T16:59:15.277Z,100878.83
2022-08-07T17:04:35.061Z,100879.26
2022-08-07T17:10:08.199Z,100884.98
2022-08-07T17:15:13.099Z,100884.45
2022-08-07T17:20:40.527Z,100884.38
2022-08-07T17:25:52.893Z,100885.58
2022-08-07T17:30:59.485Z,100887.75
2022-08-07T17:36:19.924Z,100888.67
2022-08-07T17:42:02.041Z,100891.32
2022-08-07T17:47:16.934Z,100897.58
2022-08-07T17:52:46.542Z,100901.28
2022-08-07T17:58:01.639Z,100900.02
2022-08-07T18:03:18.113Z,100900.86
2022-08-07T18:08:27.453Z,100904.00
2022-08-07T18:14:10.105Z,100903.17
2022-08-07T18:21:12.640Z,100910.77
2022-08-07T18:24:51.456Z,100913.04
2022-08-07T18:30:31.377Z,100915.38
2022-08-07T18:35:51.959Z,100918.52
2022-08-07T18:41:09.345Z,100925.00
2022-08-07T18:46:27.755Z,100931.56
2022-08-07T18:52:35.135Z,100940.73
2022-08-07T18:57:29.659Z,100948.35
2022-08-07T19:03:16.553Z,100951.89
2022-08-07T19:08:33.068Z,100950.95
2022-08-07T19:14:11.708Z,100954.93
2022-08-07T19:19:48.761Z,100958.40
2022-08-07T19:24:52.200Z,100960.92
2022-08-07T19:31:05.678Z,100968.29
2022-08-07T19:35:26.088Z,100970.78
2022-08-07T19:40:35.956Z,100969.84
2022-08-07T19:46:04.816Z,100975.98
2022-08-07T19:51:19.993Z,100977.36
2022-08-07T19:58:01.917Z,100979.19
2022-08-07T20:01:57.862Z,100983.93
2022-08-07T20:06:59.986Z,100991.01
2022-08-07T20:12:34.922Z,100991.73
2022-08-07T20:17:31.890Z,100998.62
2022-08-07T20:22:45.339Z,100998.83
2022-08-07T20:27:58.050Z,101001.77
2022-08-07T20:33:03.936Z,101005.08
2022-08-07T20:38:07.067Z,101011.98
2022-08-07T20:43:19.382Z,101014.88
2022-08-07T20:48:30.327Z,101010.88
2022-08-07T20:54:03.141Z,101013.55
2022-08-07T20:59:03.609Z,101013.80
2022-08-07T21:04:22.947Z,101009.58
2022-08-07T21:09:51.520Z,101011.23
2022-08-07T21:14:56.215Z,101011.07
2022-08-07T21:20:04.869Z,101018.05
2022-08-07T21:25:19.484Z,101016.77
2022-08-07T21:30:31.274Z,101024.71
2022-08-07T21:36:31.205Z,101024.05
2022-08-07T21:42:00.530Z,101023.00
2022-08-07T21:47:12.340Z,101028.30
2022-08-07T21:52:55.664Z,101023.80
2022-08-07T21:58:12.265Z,101023.78
2022-08-07T22:03:47.229Z,101023.40
2022-08-07T22:08:55.224Z,101022.47
2022-08-07T22:13:59.330Z,101020.02
2022-08-07T22:19:08.174Z,101019.56
2022-08-07T22:24:16.725Z,101011.12
2022-08-07T22:29:48.407Z,101009.66
2022-08-07T22:34:56.059Z,101006.85
2022-08-07T22:40:17.337Z,101001.63
2022-08-07T22:46:21.280Z,101000.83
2022-08-07T22:51:14.670Z,101000.09
2022-08-07T22:56:28.777Z,100994.17
2022-08-07T23:01:49.336Z,100993.14
2022-08-07T23:07:33.634Z,100990.14
2022-08-07T23:12:54.894Z,100990.55
2022-08-07T23:18:05.467Z,100992.02
2022-08-07T23:24:06.426Z,100993.12
2022-08-07T23:29:43.540Z,100988.95
2022-08-07T23:35:06.692Z,100989.55
2022-08-07T23:40:14.187Z,100988.19
2022-08-07T23:46:01.726Z,100992.40
2022-08-07T23:50:54.567Z,100992.52
2022-08-07T23:56:13.757Z,100996.05
